Terminal Aerodrome Forecast
Issued by NWS Paducah, KY

Home | Current Version | Previous Version | Text Only | Print | Product List | Glossary On
Versions: 1 2 3 4 5 6 7 8 9 10 11 12 13
000
FTUS43 KPAH 272300
TAFEVV
TAF
KEVV 272325Z 2800/2824 19008KT P6SM BKN250
     FM281000 22008KT P6SM VCSH BKN040 OVC200
      TEMPO 2812/2816 5SM SHRA BR BKN025
     FM281700 27009KT P6SM SCT035 BKN080
     FM282200 30008KT P6SM SCT100=

USA.gov is the U.S. government's official web portal to all federal, state and local government web resources and services.